createdAt,value
2022-08-05T00:00:18.434Z,51.61
2022-08-05T00:02:50.505Z,50.53
2022-08-05T00:05:27.251Z,50.64
2022-08-05T00:08:34.169Z,50.56
2022-08-05T00:11:00.569Z,50.55
2022-08-05T00:13:39.153Z,50.47
2022-08-05T00:16:11.100Z,50.08
2022-08-05T00:18:44.872Z,50.16
2022-08-05T00:21:12.098Z,49.89
2022-08-05T00:23:45.973Z,49.83
2022-08-05T00:26:24.597Z,49.67
2022-08-05T00:28:51.390Z,49.82
2022-08-05T00:31:53.370Z,49.70
2022-08-05T00:34:56.057Z,49.93
2022-08-05T00:37:10.662Z,50.11
2022-08-05T00:39:44.182Z,50.40
2022-08-05T00:42:33.827Z,49.83
2022-08-05T00:45:01.281Z,50.06
2022-08-05T00:47:31.611Z,49.69
2022-08-05T00:50:16.999Z,49.63
2022-08-05T00:52:45.509Z,49.78
2022-08-05T00:55:13.808Z,49.94
2022-08-05T00:57:58.179Z,49.94
2022-08-05T01:00:27.854Z,49.98
2022-08-05T01:02:54.922Z,50.17
2022-08-05T01:05:24.038Z,50.32
2022-08-05T01:08:29.892Z,50.08
2022-08-05T01:10:58.069Z,50.46
2022-08-05T01:13:57.983Z,50.23
2022-08-05T01:16:53.944Z,50.60
2022-08-05T01:19:56.596Z,50.84
2022-08-05T01:22:23.858Z,51.46
2022-08-05T01:24:53.178Z,51.48
2022-08-05T01:27:55.895Z,52.11
2022-08-05T01:30:33.601Z,52.23
2022-08-05T01:33:08.315Z,51.94
2022-08-05T01:35:50.678Z,53.96
2022-08-05T01:38:26.885Z,53.09
2022-08-05T01:40:59.358Z,53.03
2022-08-05T01:43:28.064Z,52.87
2022-08-05T01:45:57.255Z,53.04
2022-08-05T01:48:29.545Z,53.49
2022-08-05T01:50:58.042Z,53.30
2022-08-05T01:53:54.685Z,53.38
2022-08-05T01:58:10.383Z,53.86
2022-08-05T01:59:20.197Z,58.64
2022-08-05T02:01:49.631Z,59.22
2022-08-05T02:04:19.551Z,56.94
2022-08-05T02:06:46.513Z,57.14
2022-08-05T02:09:17.277Z,55.91
2022-08-05T02:12:01.675Z,56.56
2022-08-05T02:14:32.414Z,56.23
2022-08-05T02:17:29.902Z,57.32
2022-08-05T02:20:05.863Z,57.20
2022-08-05T02:22:59.659Z,57.54
2022-08-05T02:25:33.822Z,57.30
2022-08-05T02:28:28.291Z,57.59
2022-08-05T02:31:01.394Z,58.28
2022-08-05T02:33:36.133Z,57.64
2022-08-05T02:36:13.351Z,57.40
2022-08-05T02:38:53.140Z,57.64
2022-08-05T02:41:22.985Z,57.22
2022-08-05T02:44:02.883Z,58.47
2022-08-05T02:46:36.528Z,58.56
2022-08-05T02:49:22.004Z,59.09
2022-08-05T02:52:03.034Z,59.29
2022-08-05T02:54:37.251Z,59.54
2022-08-05T02:58:12.296Z,59.09
2022-08-05T03:00:01.266Z,58.19
2022-08-05T03:02:39.758Z,58.15
2022-08-05T03:05:12.742Z,58.18
2022-08-05T03:08:06.868Z,58.42
2022-08-05T03:10:31.091Z,59.01
2022-08-05T03:15:28.347Z,57.78
2022-08-05T03:17:57.815Z,57.49
2022-08-05T03:20:26.974Z,57.53
2022-08-05T03:22:58.111Z,59.72
2022-08-05T03:25:33.053Z,60.16
2022-08-05T03:28:18.737Z,58.69
2022-08-05T03:30:49.683Z,58.20
2022-08-05T03:33:20.244Z,58.69
2022-08-05T03:35:49.901Z,58.73
2022-08-05T03:38:32.943Z,58.87
2022-08-05T03:41:08.272Z,58.81
2022-08-05T03:44:08.789Z,58.63
2022-08-05T03:46:26.839Z,58.79
2022-08-05T03:48:57.203Z,58.59
2022-08-05T03:52:49.230Z,58.89
2022-08-05T03:55:52.749Z,58.28
2022-08-05T03:57:28.988Z,58.82
2022-08-05T03:59:58.338Z,61.09
2022-08-05T04:02:38.415Z,60.12
2022-08-05T04:05:09.684Z,60.12
2022-08-05T04:07:58.028Z,61.84
2022-08-05T04:10:33.315Z,64.00
2022-08-05T04:13:04.608Z,64.23
2022-08-05T04:15:36.154Z,63.31
2022-08-05T04:18:09.747Z,62.39
2022-08-05T04:20:41.335Z,62.78
2022-08-05T04:23:12.673Z,62.97
2022-08-05T04:26:00.224Z,63.31
2022-08-05T04:28:32.847Z,63.33
2022-08-05T04:31:01.253Z,63.44
2022-08-05T04:34:18.975Z,63.46
2022-08-05T04:36:44.731Z,62.43
2022-08-05T04:39:08.158Z,62.38
2022-08-05T04:41:38.651Z,62.33
2022-08-05T04:44:10.200Z,62.02
2022-08-05T04:46:40.170Z,62.37
2022-08-05T04:49:12.291Z,62.38
2022-08-05T04:51:43.079Z,62.44
2022-08-05T04:54:10.105Z,62.62
2022-08-05T04:56:40.978Z,62.25
2022-08-05T04:59:21.824Z,62.61
2022-08-05T05:02:07.079Z,64.29
2022-08-05T05:04:43.940Z,64.98
2022-08-05T05:07:15.933Z,65.18
2022-08-05T05:09:44.076Z,64.81
2022-08-05T05:12:11.695Z,64.13
2022-08-05T05:14:49.573Z,64.54
2022-08-05T05:17:24.285Z,64.45
2022-08-05T05:19:56.574Z,63.17
2022-08-05T05:22:26.507Z,60.14
2022-08-05T05:24:57.052Z,55.88
2022-08-05T05:27:44.331Z,58.45
2022-08-05T05:30:15.518Z,62.25
2022-08-05T05:33:00.972Z,62.35
2022-08-05T05:35:38.101Z,60.06
2022-08-05T05:38:09.063Z,57.74
2022-08-05T05:40:36.235Z,55.25
2022-08-05T05:43:03.041Z,54.34
2022-08-05T05:45:29.930Z,53.13
2022-08-05T05:48:06.409Z,54.67
2022-08-05T05:50:41.088Z,53.54
2022-08-05T05:53:21.328Z,53.33
2022-08-05T05:56:00.701Z,54.80
2022-08-05T05:58:31.681Z,55.98
2022-08-05T06:01:02.497Z,57.02
2022-08-05T06:04:00.924Z,60.10
2022-08-05T06:06:31.116Z,57.23
2022-08-05T06:08:58.344Z,58.36
2022-08-05T06:11:29.070Z,53.81
2022-08-05T06:14:03.109Z,48.54
2022-08-05T06:16:32.683Z,46.41
2022-08-05T06:19:07.492Z,45.64
2022-08-05T06:21:38.790Z,43.45
2022-08-05T06:24:11.207Z,45.77
2022-08-05T06:26:39.938Z,46.19
2022-08-05T06:29:42.838Z,49.47
2022-08-05T06:32:04.759Z,50.36
2022-08-05T06:34:42.383Z,49.24
2022-08-05T06:37:13.620Z,49.73
2022-08-05T06:39:41.282Z,51.16
2022-08-05T06:42:08.303Z,52.27
2022-08-05T06:44:37.194Z,52.17
2022-08-05T06:47:06.313Z,52.95
2022-08-05T06:50:01.730Z,51.95
2022-08-05T06:52:37.958Z,50.25
2022-08-05T06:55:09.798Z,50.02
2022-08-05T06:58:03.081Z,51.84
2022-08-05T07:00:26.900Z,51.09
2022-08-05T07:02:56.348Z,51.01
2022-08-05T07:05:36.890Z,50.54
2022-08-05T07:08:05.045Z,50.47
2022-08-05T07:10:32.687Z,49.33
2022-08-05T07:13:39.518Z,49.98
2022-08-05T07:17:55.912Z,50.42
2022-08-05T07:19:10.208Z,49.74
2022-08-05T07:22:00.216Z,50.01
2022-08-05T07:24:29.915Z,51.25
2022-08-05T07:26:58.832Z,52.47
2022-08-05T07:30:25.728Z,51.24
2022-08-05T07:32:15.686Z,49.34
2022-08-05T07:34:42.545Z,48.87
2022-08-05T07:37:11.647Z,48.46
2022-08-05T07:40:25.913Z,49.92
2022-08-05T07:42:33.530Z,49.26
2022-08-05T07:45:00.994Z,47.43
2022-08-05T07:47:27.528Z,47.18
2022-08-05T07:50:10.143Z,47.34
2022-08-05T07:52:41.145Z,46.44
2022-08-05T07:55:16.057Z,46.32
2022-08-05T07:58:02.844Z,46.80
2022-08-05T08:00:30.376Z,46.59
2022-08-05T08:03:13.753Z,46.65
2022-08-05T08:05:47.640Z,45.97
2022-08-05T08:08:20.234Z,45.92
2022-08-05T08:10:49.022Z,43.27
2022-08-05T08:13:21.891Z,44.32
2022-08-05T08:16:50.850Z,44.71
2022-08-05T08:18:50.685Z,44.63
2022-08-05T08:21:17.639Z,44.05
2022-08-05T08:24:01.409Z,43.60
2022-08-05T08:26:34.620Z,44.27
2022-08-05T08:29:29.442Z,43.64
2022-08-05T08:31:55.624Z,43.58
2022-08-05T08:34:30.187Z,43.46
2022-08-05T08:37:01.747Z,44.18
2022-08-05T08:39:31.666Z,43.10
2022-08-05T08:42:33.735Z,43.03
2022-08-05T08:45:18.390Z,41.59
2022-08-05T08:48:10.711Z,40.68
2022-08-05T08:51:03.666Z,38.54
2022-08-05T08:53:37.566Z,38.79
2022-08-05T08:56:07.467Z,37.33
2022-08-05T08:58:43.332Z,37.07
2022-08-05T09:01:15.855Z,36.31
2022-08-05T09:03:47.591Z,34.97
2022-08-05T09:06:20.014Z,34.77
2022-08-05T09:08:48.586Z,36.09
2022-08-05T09:11:17.402Z,36.60
2022-08-05T09:14:54.786Z,36.45
2022-08-05T09:16:54.267Z,35.97
2022-08-05T09:19:23.921Z,36.15
2022-08-05T09:22:22.719Z,35.70
2022-08-05T09:24:44.981Z,37.08
2022-08-05T09:28:04.933Z,37.34
2022-08-05T09:30:28.683Z,37.65
2022-08-05T09:33:01.850Z,38.55
2022-08-05T09:35:29.457Z,37.72
2022-08-05T09:38:12.237Z,38.26
2022-08-05T09:40:44.484Z,37.65
2022-08-05T09:43:41.104Z,36.71
2022-08-05T09:46:27.388Z,35.57
2022-08-05T09:49:06.971Z,37.29
2022-08-05T09:51:48.779Z,37.71
2022-08-05T09:54:21.429Z,37.76
2022-08-05T09:56:57.428Z,36.56
2022-08-05T09:59:24.547Z,36.48
2022-08-05T10:01:58.130Z,38.02
2022-08-05T10:04:35.967Z,38.16
2022-08-05T10:07:19.954Z,37.83
2022-08-05T10:10:14.681Z,38.60
2022-08-05T10:12:49.300Z,37.91
2022-08-05T10:15:28.546Z,37.78
2022-08-05T10:18:03.753Z,39.23
2022-08-05T10:20:32.579Z,39.85
2022-08-05T10:23:01.063Z,38.73
2022-08-05T10:25:28.211Z,39.00
2022-08-05T10:28:13.381Z,38.92
2022-08-05T10:32:52.277Z,37.84
2022-08-05T10:33:35.330Z,36.35
2022-08-05T10:36:04.607Z,36.40
2022-08-05T10:38:34.931Z,36.46
2022-08-05T10:41:23.678Z,36.41
2022-08-05T10:44:01.402Z,35.93
2022-08-05T10:47:26.487Z,36.04
2022-08-05T10:50:33.192Z,35.47
2022-08-05T10:53:00.227Z,35.41
2022-08-05T10:55:27.589Z,33.76
2022-08-05T10:58:09.436Z,33.79
2022-08-05T11:00:45.837Z,33.37
2022-08-05T11:03:23.652Z,34.30
2022-08-05T11:06:15.867Z,34.46
2022-08-05T11:09:32.336Z,34.37
2022-08-05T11:12:28.548Z,33.91
2022-08-05T11:15:20.989Z,34.19
2022-08-05T11:17:58.768Z,34.88
2022-08-05T11:20:41.656Z,35.90
2022-08-05T11:23:56.918Z,36.33
2022-08-05T11:26:32.233Z,35.85
2022-08-05T11:29:13.301Z,35.33
2022-08-05T11:31:57.639Z,34.16
2022-08-05T11:34:50.806Z,34.38
2022-08-05T11:38:29.890Z,33.01
2022-08-05T11:41:00.833Z,32.81
2022-08-05T11:44:04.375Z,34.50
2022-08-05T11:46:32.442Z,35.25
2022-08-05T11:49:01.452Z,35.80
2022-08-05T11:51:43.702Z,34.33
2022-08-05T11:54:32.686Z,34.08
2022-08-05T11:57:02.257Z,34.15
2022-08-05T11:59:49.440Z,32.47
2022-08-05T12:02:29.715Z,32.73
2022-08-05T12:04:59.856Z,32.56
2022-08-05T12:08:07.981Z,32.55
2022-08-05T12:10:19.759Z,33.19
2022-08-05T12:12:46.628Z,32.42
2022-08-05T12:15:35.798Z,32.70
2022-08-05T12:18:10.450Z,32.13
2022-08-05T12:20:38.961Z,32.07
2022-08-05T12:23:11.997Z,31.73
2022-08-05T12:25:56.750Z,32.88
2022-08-05T12:28:35.050Z,33.88
2022-08-05T12:31:04.507Z,33.38
2022-08-05T12:33:36.787Z,33.33
2022-08-05T12:36:09.701Z,33.59
2022-08-05T12:38:39.746Z,34.00
2022-08-05T12:41:13.932Z,33.89
2022-08-05T12:43:55.732Z,33.90
2022-08-05T12:46:29.276Z,34.21
2022-08-05T12:49:20.267Z,33.60
2022-08-05T12:52:14.112Z,33.24
2022-08-05T12:54:51.052Z,32.83
2022-08-05T12:57:19.665Z,32.70
2022-08-05T13:01:57.348Z,33.20
2022-08-05T13:02:43.825Z,32.50
2022-08-05T13:05:19.620Z,32.35
2022-08-05T13:08:00.381Z,31.96
2022-08-05T13:10:31.805Z,31.53
2022-08-05T13:12:58.824Z,32.10
2022-08-05T13:15:41.480Z,31.53
2022-08-05T13:18:19.489Z,32.34
2022-08-05T13:20:49.270Z,32.45
2022-08-05T13:23:18.316Z,30.99
2022-08-05T13:25:59.584Z,30.85
2022-08-05T13:28:28.493Z,30.99
2022-08-05T13:30:57.911Z,31.91
2022-08-05T13:34:20.954Z,32.36
2022-08-05T13:36:14.601Z,31.79
2022-08-05T13:38:43.822Z,30.59
2022-08-05T13:41:11.613Z,31.63
2022-08-05T13:43:43.414Z,30.64
2022-08-05T13:46:11.687Z,30.56
2022-08-05T13:48:57.499Z,30.37
2022-08-05T13:51:40.202Z,30.75
2022-08-05T13:54:12.077Z,30.51
2022-08-05T13:56:39.847Z,30.34
2022-08-05T13:59:20.297Z,29.84
2022-08-05T14:01:57.469Z,29.97
2022-08-05T14:04:49.981Z,29.67
2022-08-05T14:08:00.389Z,29.73
2022-08-05T14:10:28.748Z,29.66
2022-08-05T14:12:57.157Z,29.30
2022-08-05T14:16:04.846Z,28.93
2022-08-05T14:18:15.271Z,29.15
2022-08-05T14:20:49.105Z,28.63
2022-08-05T14:23:26.223Z,28.68
2022-08-05T14:25:58.751Z,28.95
2022-08-05T14:28:32.296Z,29.08
2022-08-05T14:31:03.435Z,29.20
2022-08-05T14:33:59.436Z,28.87
2022-08-05T14:36:27.392Z,28.42
2022-08-05T14:38:54.031Z,28.42
2022-08-05T14:41:21.125Z,27.82
2022-08-05T14:43:59.084Z,27.53
2022-08-05T14:46:35.168Z,27.49
2022-08-05T14:49:07.764Z,27.25
2022-08-05T14:51:37.532Z,27.23
2022-08-05T14:54:26.080Z,28.17
2022-08-05T14:56:54.677Z,28.89
2022-08-05T14:59:21.809Z,28.13
2022-08-05T15:01:51.355Z,28.35
2022-08-05T15:04:22.830Z,27.90
2022-08-05T15:06:52.138Z,28.12
2022-08-05T15:09:52.657Z,29.39
2022-08-05T15:12:16.586Z,29.45
2022-08-05T15:14:49.602Z,28.92
2022-08-05T15:17:44.660Z,29.94
2022-08-05T15:20:07.092Z,30.27
2022-08-05T15:22:36.744Z,30.50
2022-08-05T15:25:13.615Z,30.34
2022-08-05T15:27:42.693Z,30.16
2022-08-05T15:30:14.197Z,30.16
2022-08-05T15:32:47.822Z,30.73
2022-08-05T15:35:15.033Z,31.02
2022-08-05T15:38:32.716Z,31.25
2022-08-05T15:41:02.713Z,31.25
2022-08-05T15:43:20.273Z,32.54
2022-08-05T15:46:00.474Z,31.81
2022-08-05T15:48:31.151Z,32.27
2022-08-05T15:51:03.621Z,31.41
2022-08-05T15:53:38.491Z,31.19
2022-08-05T15:56:18.216Z,30.87
2022-08-05T15:58:46.364Z,30.69
2022-08-05T16:01:18.158Z,29.87
2022-08-05T16:03:50.625Z,30.30
2022-08-05T16:06:20.206Z,29.96
2022-08-05T16:08:53.458Z,30.22
2022-08-05T16:11:42.937Z,30.29
2022-08-05T16:14:10.105Z,29.82
2022-08-05T16:16:47.197Z,30.56
2022-08-05T16:19:19.185Z,31.23
2022-08-05T16:22:03.607Z,30.85
2022-08-05T16:24:41.177Z,30.83
2022-08-05T16:27:32.272Z,31.16
2022-08-05T16:30:23.073Z,29.79
2022-08-05T16:32:54.934Z,29.66
2022-08-05T16:35:24.882Z,30.01
2022-08-05T16:38:13.676Z,30.34
2022-08-05T16:40:52.316Z,30.32
2022-08-05T16:43:28.926Z,30.32
2022-08-05T16:46:03.478Z,30.34
2022-08-05T16:48:37.539Z,31.10
2022-08-05T16:51:09.469Z,30.98
2022-08-05T16:54:05.862Z,31.78
2022-08-05T16:56:29.592Z,31.89
2022-08-05T16:58:57.259Z,32.17
2022-08-05T17:01:24.303Z,32.81
2022-08-05T17:03:52.081Z,32.86
2022-08-05T17:06:19.756Z,33.40
2022-08-05T17:08:52.973Z,33.38
2022-08-05T17:11:25.477Z,33.29
2022-08-05T17:14:05.573Z,33.69
2022-08-05T17:16:37.718Z,33.77
2022-08-05T17:19:07.658Z,34.88
2022-08-05T17:21:37.240Z,35.34
2022-08-05T17:24:28.393Z,40.09
2022-08-05T17:27:03.350Z,41.71
2022-08-05T17:29:33.772Z,41.22
2022-08-05T17:32:08.337Z,40.97
2022-08-05T17:34:37.818Z,41.84
2022-08-05T17:37:27.237Z,41.90
2022-08-05T17:39:51.271Z,42.68
2022-08-05T17:42:26.997Z,42.79
2022-08-05T17:44:56.610Z,43.89
2022-08-05T17:47:23.649Z,43.69
2022-08-05T17:50:03.602Z,44.31
2022-08-05T17:52:35.166Z,46.04
2022-08-05T17:55:20.928Z,48.80
2022-08-05T17:57:50.688Z,48.28
2022-08-05T18:00:17.593Z,48.56
2022-08-05T18:02:49.988Z,48.78
2022-08-05T18:05:21.514Z,49.78
2022-08-05T18:07:48.416Z,49.60
2022-08-05T18:10:21.018Z,49.54
2022-08-05T18:12:51.399Z,49.79
2022-08-05T18:15:18.066Z,49.38
2022-08-05T18:18:01.211Z,49.60
2022-08-05T18:20:32.119Z,48.37
2022-08-05T18:23:11.449Z,49.47
2022-08-05T18:25:44.888Z,48.98
2022-08-05T18:28:17.758Z,48.94
2022-08-05T18:30:53.956Z,50.44
2022-08-05T18:33:24.337Z,50.50
2022-08-05T18:36:03.710Z,50.96
2022-08-05T18:38:36.716Z,50.79
2022-08-05T18:41:56.411Z,51.14
2022-08-05T18:43:56.499Z,50.86
2022-08-05T18:46:28.955Z,50.87
2022-08-05T18:49:19.827Z,50.85
2022-08-05T18:52:09.003Z,51.53
2022-08-05T18:54:41.239Z,52.95
2022-08-05T18:57:15.765Z,54.26
2022-08-05T19:00:02.545Z,53.59
2022-08-05T19:02:29.637Z,56.97
2022-08-05T19:05:02.847Z,57.15
2022-08-05T19:07:48.073Z,57.15
2022-08-05T19:10:28.229Z,57.26
2022-08-05T19:12:56.582Z,56.64
2022-08-05T19:15:57.236Z,58.16
2022-08-05T19:18:21.959Z,59.23
2022-08-05T19:20:53.739Z,58.46
2022-08-05T19:24:06.958Z,59.01
2022-08-05T19:26:11.174Z,58.97
2022-08-05T19:28:43.231Z,58.89
2022-08-05T19:31:17.692Z,57.95
2022-08-05T19:33:48.576Z,58.38
2022-08-05T19:36:26.756Z,57.90
2022-08-05T19:39:01.006Z,59.46
2022-08-05T19:42:05.478Z,59.59
2022-08-05T19:44:19.253Z,61.13
2022-08-05T19:46:46.126Z,62.11
2022-08-05T19:49:16.892Z,61.77
2022-08-05T19:52:05.598Z,61.23
2022-08-05T19:54:37.294Z,61.86
2022-08-05T19:57:09.310Z,61.67
2022-08-05T20:00:02.072Z,61.50
2022-08-05T20:02:25.954Z,63.31
2022-08-05T20:04:58.402Z,62.16
2022-08-05T20:07:46.538Z,63.39
2022-08-05T20:10:15.174Z,62.47
2022-08-05T20:12:46.358Z,62.74
2022-08-05T20:15:48.468Z,62.61
2022-08-05T20:18:32.895Z,62.78
2022-08-05T20:21:00.082Z,64.31
2022-08-05T20:23:40.033Z,63.78
2022-08-05T20:26:19.938Z,63.39
2022-08-05T20:28:48.654Z,63.32
2022-08-05T20:31:21.879Z,63.25
2022-08-05T20:33:55.614Z,64.59
2022-08-05T20:36:25.865Z,67.40
2022-08-05T20:38:54.390Z,72.27
2022-08-05T20:41:26.848Z,72.90
2022-08-05T20:43:59.988Z,80.12
2022-08-05T20:46:33.877Z,82.47
2022-08-05T20:49:00.400Z,85.96
2022-08-05T20:51:33.963Z,85.07
2022-08-05T20:56:42.107Z,88.26
2022-08-05T20:59:18.925Z,87.52
2022-08-05T21:01:52.047Z,90.11
2022-08-05T21:04:21.140Z,92.05
2022-08-05T21:06:54.057Z,92.32
2022-08-05T21:09:20.809Z,91.95
2022-08-05T21:12:10.728Z,94.87
2022-08-05T21:14:35.344Z,93.66
2022-08-05T21:17:05.075Z,94.56
2022-08-05T21:19:47.555Z,97.10
2022-08-05T21:22:23.377Z,97.79
2022-08-05T21:24:54.871Z,98.15
2022-08-05T21:27:25.007Z,96.86
2022-08-05T21:29:52.442Z,98.00
2022-08-05T21:32:20.924Z,98.18
2022-08-05T21:35:06.669Z,97.90
2022-08-05T21:37:41.233Z,98.62
2022-08-05T21:40:13.124Z,99.34
2022-08-05T21:42:46.760Z,99.26
2022-08-05T21:45:24.669Z,99.01
2022-08-05T21:48:06.460Z,98.58
2022-08-05T21:50:34.828Z,96.31
2022-08-05T21:53:16.683Z,97.62
2022-08-05T21:56:05.752Z,99.51
2022-08-05T21:58:36.687Z,100.00
2022-08-05T22:01:11.136Z,99.37
2022-08-05T22:03:54.025Z,98.88
2022-08-05T22:06:35.537Z,97.87
2022-08-05T22:09:14.589Z,98.71
2022-08-05T22:11:42.733Z,98.41
2022-08-05T22:14:34.265Z,98.83
2022-08-05T22:17:08.394Z,99.22
2022-08-05T22:20:03.080Z,97.74
2022-08-05T22:22:28.144Z,100.00
2022-08-05T22:25:20.986Z,99.89
2022-08-05T22:28:08.439Z,100.00
2022-08-05T22:30:44.090Z,100.00
2022-08-05T22:33:57.849Z,100.00
2022-08-05T22:36:17.329Z,100.00
2022-08-05T22:38:48.070Z,100.00
2022-08-05T22:42:04.398Z,100.00
2022-08-05T22:44:06.900Z,100.00
2022-08-05T22:46:40.018Z,100.00
2022-08-05T22:49:12.033Z,100.00
2022-08-05T22:52:06.673Z,100.00
2022-08-05T22:54:35.450Z,100.00
2022-08-05T22:57:02.818Z,100.00
2022-08-05T22:59:46.405Z,99.75
2022-08-05T23:02:29.272Z,100.00
2022-08-05T23:04:57.966Z,100.00
2022-08-05T23:07:28.480Z,100.00
2022-08-05T23:10:01.957Z,100.00
2022-08-05T23:12:32.884Z,100.00
2022-08-05T23:15:03.348Z,100.00
2022-08-05T23:17:37.276Z,100.00
2022-08-05T23:20:20.105Z,100.00
2022-08-05T23:22:50.453Z,100.00
2022-08-05T23:25:50.870Z,100.00
2022-08-05T23:28:12.120Z,100.00
2022-08-05T23:30:43.581Z,100.00
2022-08-05T23:33:16.359Z,100.00
2022-08-05T23:35:56.244Z,100.00
2022-08-05T23:38:26.725Z,100.00
2022-08-05T23:40:55.725Z,98.44
2022-08-05T23:43:25.423Z,100.00
2022-08-05T23:46:19.900Z,100.00
2022-08-05T23:49:00.999Z,100.00
2022-08-05T23:51:53.663Z,100.00
2022-08-05T23:54:26.625Z,100.00
2022-08-05T23:57:04.172Z,100.00
